Time;durP1;ratioP1;P1;durP2;ratioP2;P2;SDS_P1;SDS_P2;PMS_P1;PMS_P2;Temp;Humidity;BMP_temperature;BMP_pressure;BME280_temperature;BME280_humidity;BME280_pressure;Samples;Min_cycle;Max_cycle;Signal;HPM_P1;HPM_P2
2024/02/02 00:01:13;;;;;;;23.65;4.30;;;5.50;99.90;;;;;;5097357;28;20040;-64
2024/02/02 00:03:40;;;;;;;15.65;3.92;;;5.40;99.90;;;;;;5094104;28;20226;-62
2024/02/02 00:06:08;;;;;;;18.83;3.85;;;5.50;99.90;;;;;;5098330;28;20047;-63
2024/02/02 00:08:35;;;;;;;23.45;3.85;;;5.40;99.90;;;;;;5092747;28;20048;-63
2024/02/02 00:11:02;;;;;;;21.25;3.20;;;5.40;99.90;;;;;;5094671;28;20100;-64
2024/02/02 00:13:28;;;;;;;18.70;4.20;;;5.40;99.90;;;;;;5098451;28;20051;-64
2024/02/02 00:15:58;;;;;;;29.33;6.40;;;5.40;99.90;;;;;;5092565;28;20143;-65
2024/02/02 00:18:25;;;;;;;12.68;4.38;;;5.40;99.90;;;;;;4744815;28;10000591;-63
2024/02/02 00:20:54;;;;;;;23.90;4.60;;;5.40;99.90;;;;;;5098012;28;20448;-64
2024/02/02 00:23:21;;;;;;;19.40;4.38;;;5.40;99.90;;;;;;5089589;28;20052;-64
2024/02/02 00:25:47;;;;;;;20.90;4.80;;;5.40;99.90;;;;;;5093896;28;20063;-64
2024/02/02 00:28:15;;;;;;;20.92;6.07;;;5.40;99.90;;;;;;5092399;28;20497;-64
2024/02/02 00:30:41;;;;;;;18.70;4.88;;;5.50;99.90;;;;;;5095833;28;20039;-64
2024/02/02 00:33:08;;;;;;;11.40;3.78;;;5.40;99.90;;;;;;5093287;28;20079;-64
2024/02/02 00:35:35;;;;;;;17.45;4.53;;;5.40;99.90;;;;;;5098339;28;20070;-64
2024/02/02 00:38:02;;;;;;;17.63;3.50;;;5.40;99.90;;;;;;5101807;28;20075;-64
2024/02/02 00:40:29;;;;;;;18.30;4.10;;;5.40;99.90;;;;;;5097913;28;20048;-64
2024/02/02 00:42:56;;;;;;;18.00;5.07;;;5.30;99.90;;;;;;5104935;28;20039;-64
2024/02/02 00:45:23;;;;;;;20.42;6.13;;;5.30;99.90;;;;;;5098928;28;20063;-63
2024/02/02 00:47:50;;;;;;;20.83;5.15;;;5.30;99.90;;;;;;5101603;28;20043;-63
2024/02/02 00:50:17;;;;;;;22.45;3.60;;;5.20;99.90;;;;;;5095557;28;20083;-63
2024/02/02 00:52:44;;;;;;;14.55;4.50;;;5.30;99.90;;;;;;5098669;28;20040;-64
2024/02/02 00:55:11;;;;;;;18.70;3.13;;;5.30;99.90;;;;;;5100078;28;20552;-64
2024/02/02 00:57:38;;;;;;;14.85;3.38;;;5.30;99.90;;;;;;5094130;28;20462;-64
2024/02/02 01:00:10;;;;;;;10.05;3.05;;;5.40;99.90;;;;;;5100403;28;20062;-64
2024/02/02 01:02:39;;;;;;;18.40;4.03;;;5.40;99.90;;;;;;5099580;28;20108;-64
2024/02/02 01:05:06;;;;;;;12.88;3.33;;;5.40;99.90;;;;;;5095518;28;20273;-65
2024/02/02 01:07:33;;;;;;;16.58;3.25;;;5.40;99.90;;;;;;5095357;28;20089;-64
2024/02/02 01:10:00;;;;;;;15.02;3.40;;;5.40;99.90;;;;;;5100143;28;20450;-62
2024/02/02 01:12:27;;;;;;;23.98;7.00;;;5.40;99.90;;;;;;5094572;28;20052;-63
2024/02/02 01:14:54;;;;;;;18.77;4.00;;;5.40;99.90;;;;;;5100677;28;20126;-63
2024/02/02 01:17:21;;;;;;;23.08;4.80;;;5.50;99.90;;;;;;5097870;28;20079;-63
2024/02/02 01:19:48;;;;;;;14.32;3.00;;;5.50;99.90;;;;;;5106517;28;20043;-63
2024/02/02 01:22:15;;;;;;;15.38;3.20;;;5.50;99.90;;;;;;5097339;28;20269;-63
2024/02/02 01:24:42;;;;;;;23.77;3.45;;;5.50;99.90;;;;;;5093788;28;20043;-66
2024/02/02 01:27:09;;;;;;;19.58;3.75;;;5.50;99.90;;;;;;5099373;28;20039;-63
2024/02/02 01:29:35;;;;;;;19.02;3.35;;;5.50;99.90;;;;;;5096662;28;20076;-65
2024/02/02 01:32:03;;;;;;;22.90;4.03;;;5.60;99.90;;;;;;5094965;28;20054;-64
2024/02/02 01:34:29;;;;;;;21.40;3.78;;;5.70;99.90;;;;;;5093481;28;20044;-63
2024/02/02 01:36:56;;;;;;;27.55;4.53;;;5.60;99.90;;;;;;5102623;28;20047;-63
2024/02/02 01:39:23;;;;;;;13.52;3.72;;;5.60;99.90;;;;;;5099327;28;20570;-63
2024/02/02 01:41:50;;;;;;;19.88;3.70;;;5.70;99.90;;;;;;5090629;28;20047;-63
2024/02/02 01:44:17;;;;;;;14.48;3.15;;;5.70;99.90;;;;;;5096238;28;20079;-64
2024/02/02 01:46:47;;;;;;;26.67;3.72;;;5.60;99.90;;;;;;5096208;28;20040;-63
2024/02/02 01:49:14;;;;;;;24.48;4.38;;;5.60;99.90;;;;;;5098534;28;20044;-63
2024/02/02 01:51:41;;;;;;;29.92;3.67;;;5.60;99.90;;;;;;5101475;28;20044;-62
2024/02/02 01:54:08;;;;;;;18.80;3.30;;;5.60;99.90;;;;;;5105017;28;20131;-63
2024/02/02 01:56:35;;;;;;;16.33;3.45;;;5.60;99.90;;;;;;5093356;28;20113;-63
2024/02/02 01:59:07;;;;;;;20.10;3.55;;;5.60;99.90;;;;;;5100514;28;20054;-64
2024/02/02 02:01:34;;;;;;;25.75;4.22;;;5.60;99.90;;;;;;5102625;28;20039;-63
2024/02/02 02:04:01;;;;;;;19.60;3.28;;;5.60;99.90;;;;;;5098794;28;20052;-63
2024/02/02 02:06:28;;;;;;;14.38;3.95;;;5.60;99.90;;;;;;5100214;28;20118;-66
2024/02/02 02:08:55;;;;;;;21.63;4.15;;;5.50;99.90;;;;;;5095914;28;20040;-64
2024/02/02 02:11:22;;;;;;;16.13;3.60;;;5.60;99.90;;;;;;5105019;28;20047;-64
2024/02/02 02:13:49;;;;;;;10.45;2.53;;;5.60;99.90;;;;;;5100170;28;20060;-63
2024/02/02 02:16:16;;;;;;;15.15;3.15;;;5.50;99.90;;;;;;5092103;27;20051;-63
2024/02/02 02:18:43;;;;;;;20.60;4.88;;;5.50;99.90;;;;;;5081683;28;20047;-64
2024/02/02 02:21:28;;;;;;;17.63;4.20;;;5.50;99.90;;;;;;5103691;28;20051;-63
2024/02/02 02:23:55;;;;;;;16.73;3.35;;;5.50;99.90;;;;;;5099227;28;20633;-63
2024/02/02 02:26:22;;;;;;;19.50;5.18;;;5.50;99.90;;;;;;5103618;28;20036;-63
2024/02/02 02:28:49;;;;;;;11.48;2.83;;;5.50;99.90;;;;;;5101863;28;20043;-63
2024/02/02 02:31:17;;;;;;;17.02;3.00;;;5.50;99.90;;;;;;5100173;28;20055;-63
2024/02/02 02:33:44;;;;;;;22.98;4.90;;;5.50;99.90;;;;;;5101680;28;20123;-64
2024/02/02 02:36:14;;;;;;;22.98;3.42;;;5.50;99.90;;;;;;5106932;28;20043;-64
2024/02/02 02:38:43;;;;;;;23.52;3.65;;;5.50;99.90;;;;;;5107381;28;20047;-63
2024/02/02 02:41:10;;;;;;;17.73;5.43;;;5.50;99.90;;;;;;5104685;28;20047;-64
2024/02/02 02:43:36;;;;;;;21.90;3.33;;;5.60;99.90;;;;;;5106176;28;20461;-64
2024/02/02 02:46:04;;;;;;;19.27;3.97;;;5.60;99.90;;;;;;5106670;28;20052;-64
2024/02/02 02:48:30;;;;;;;22.02;3.72;;;5.70;99.90;;;;;;5098265;28;20100;-64
2024/02/02 02:50:57;;;;;;;20.23;4.28;;;5.70;99.90;;;;;;5096300;28;20131;-64
2024/02/02 02:53:24;;;;;;;12.35;2.88;;;5.80;99.90;;;;;;5094365;28;20043;-63
2024/02/02 02:55:51;;;;;;;15.80;4.35;;;5.80;99.90;;;;;;5097720;28;20525;-63
2024/02/02 02:58:18;;;;;;;23.75;3.13;;;5.80;99.90;;;;;;5100592;28;20054;-63
2024/02/02 03:00:45;;;;;;;20.60;2.92;;;5.90;99.90;;;;;;5095102;28;20048;-64
2024/02/02 03:03:12;;;;;;;16.38;2.65;;;5.90;99.90;;;;;;5108232;28;20040;-63
2024/02/02 03:05:39;;;;;;;19.65;3.78;;;6.00;99.90;;;;;;5101182;28;20049;-64
2024/02/02 03:08:07;;;;;;;10.77;3.00;;;6.00;99.90;;;;;;5100635;28;20055;-63
2024/02/02 03:10:34;;;;;;;11.93;2.63;;;6.00;99.90;;;;;;5097801;28;20036;-63
2024/02/02 03:13:00;;;;;;;12.35;3.58;;;6.00;99.90;;;;;;5105235;28;20051;-63
2024/02/02 03:15:31;;;;;;;6.68;1.80;;;6.10;99.90;;;;;;5101053;28;20043;-63
2024/02/02 03:17:58;;;;;;;15.88;3.65;;;6.10;99.90;;;;;;5101564;28;20104;-63
2024/02/02 03:20:29;;;;;;;13.45;2.58;;;6.10;99.90;;;;;;5103269;28;20063;-63
2024/02/02 03:22:56;;;;;;;14.18;2.63;;;6.20;99.90;;;;;;5103317;28;20047;-63
2024/02/02 03:25:23;;;;;;;8.85;2.70;;;6.20;99.90;;;;;;5092677;28;20048;-64
2024/02/02 03:27:50;;;;;;;10.30;2.30;;;6.20;99.90;;;;;;5105482;28;20043;-64
2024/02/02 03:30:17;;;;;;;7.30;2.35;;;6.30;99.90;;;;;;5088994;28;20048;-64
2024/02/02 03:32:44;;;;;;;17.00;3.20;;;6.30;99.90;;;;;;5105026;28;20040;-63
2024/02/02 03:35:12;;;;;;;7.40;2.08;;;6.30;99.90;;;;;;5104799;28;20454;-63
2024/02/02 03:37:39;;;;;;;7.28;2.15;;;6.30;99.90;;;;;;5099381;28;20055;-64
2024/02/02 03:40:06;;;;;;;7.80;1.95;;;6.40;99.90;;;;;;5101268;28;20059;-63
2024/02/02 03:42:33;;;;;;;6.97;1.98;;;6.40;99.90;;;;;;5095261;28;20504;-64
2024/02/02 03:45:00;;;;;;;15.93;3.50;;;6.40;99.90;;;;;;5094444;28;20060;-63
2024/02/02 03:47:27;;;;;;;17.27;2.45;;;6.40;99.90;;;;;;5095247;28;20055;-63
2024/02/02 03:49:53;;;;;;;11.50;2.10;;;6.50;99.90;;;;;;5099653;28;20301;-63
2024/02/02 03:52:23;;;;;;;10.48;1.98;;;6.40;99.90;;;;;;5094239;28;20043;-63
2024/02/02 03:54:51;;;;;;;11.55;2.45;;;6.50;99.90;;;;;;5077843;28;20132;-63
2024/02/02 03:57:18;;;;;;;11.95;3.67;;;6.50;99.90;;;;;;5098134;28;20040;-63
2024/02/02 03:59:45;;;;;;;7.90;2.15;;;6.50;99.90;;;;;;5095189;28;20126;-63
2024/02/02 04:02:12;;;;;;;12.23;2.72;;;6.50;99.90;;;;;;5100000;28;20044;-63
2024/02/02 04:04:39;;;;;;;14.52;2.38;;;6.60;99.90;;;;;;5102529;28;20491;-63
2024/02/02 04:07:06;;;;;;;9.32;2.00;;;6.60;99.90;;;;;;5098368;28;20492;-63
2024/02/02 04:09:33;;;;;;;10.73;2.17;;;6.50;99.90;;;;;;5103968;28;20080;-64
2024/02/02 04:12:00;;;;;;;11.18;1.83;;;6.60;99.90;;;;;;5099543;28;20079;-63
2024/02/02 04:14:27;;;;;;;8.98;1.52;;;6.60;99.90;;;;;;5097281;28;20153;-65
2024/02/02 04:16:54;;;;;;;12.27;3.33;;;6.60;99.90;;;;;;5103416;28;20123;-64
2024/02/02 04:19:21;;;;;;;6.80;1.85;;;6.60;99.90;;;;;;5094595;28;20044;-64
2024/02/02 04:21:48;;;;;;;10.88;1.85;;;6.70;99.90;;;;;;5093571;28;20124;-64
2024/02/02 04:24:15;;;;;;;7.50;1.25;;;6.70;99.90;;;;;;5100088;28;20054;-64
2024/02/02 04:26:42;;;;;;;8.10;1.67;;;6.70;99.90;;;;;;5099960;28;20090;-64
2024/02/02 04:29:09;;;;;;;4.75;2.03;;;6.80;99.90;;;;;;5098824;28;20044;-64
2024/02/02 04:31:36;;;;;;;4.55;1.55;;;6.80;99.90;;;;;;5105800;28;20263;-64
2024/02/02 04:34:03;;;;;;;4.43;1.60;;;6.80;99.90;;;;;;5099993;28;20426;-64
2024/02/02 04:36:30;;;;;;;7.38;1.63;;;6.80;99.90;;;;;;5093281;28;20052;-64
2024/02/02 04:38:57;;;;;;;6.72;1.20;;;6.90;99.90;;;;;;5095110;28;20594;-64
2024/02/02 04:41:25;;;;;;;8.00;1.63;;;6.90;99.90;;;;;;5103383;28;20050;-64
2024/02/02 04:43:51;;;;;;;3.95;1.65;;;7.00;99.90;;;;;;5098785;28;20055;-63
2024/02/02 04:46:18;;;;;;;9.10;1.58;;;7.00;99.90;;;;;;5104782;28;20191;-64
2024/02/02 04:48:45;;;;;;;5.50;1.17;;;7.00;99.90;;;;;;5097714;28;20071;-63
2024/02/02 04:51:12;;;;;;;6.78;1.23;;;7.00;99.90;;;;;;5095173;28;20094;-63
2024/02/02 04:53:39;;;;;;;4.90;0.95;;;7.10;99.90;;;;;;5100559;28;20063;-64
2024/02/02 04:56:06;;;;;;;5.05;1.33;;;7.10;99.90;;;;;;5099852;28;20161;-64
2024/02/02 04:58:33;;;;;;;10.05;1.23;;;7.10;99.90;;;;;;5089722;28;20076;-64
2024/02/02 05:00:59;;;;;;;6.22;1.42;;;7.20;99.90;;;;;;5098803;28;20104;-62
2024/02/02 05:03:27;;;;;;;3.13;1.00;;;7.20;99.90;;;;;;5099972;28;20079;-64
2024/02/02 05:05:54;;;;;;;6.32;1.45;;;7.20;99.90;;;;;;5102930;28;20134;-64
2024/02/02 05:08:21;;;;;;;6.90;1.20;;;7.30;99.90;;;;;;5089183;28;20076;-63
2024/02/02 05:10:48;;;;;;;3.20;1.30;;;7.40;99.90;;;;;;5094324;28;20356;-63
2024/02/02 05:13:15;;;;;;;4.22;1.45;;;7.30;99.90;;;;;;5104033;28;20079;-63
2024/02/02 05:15:42;;;;;;;5.70;1.35;;;7.30;99.90;;;;;;5095940;28;20242;-63
2024/02/02 05:18:10;;;;;;;16.77;2.10;;;7.30;99.90;;;;;;5105903;28;20054;-63
2024/02/02 05:20:38;;;;;;;6.13;0.90;;;7.30;99.90;;;;;;5094080;28;20122;-63
2024/02/02 05:23:05;;;;;;;4.00;1.88;;;7.40;99.90;;;;;;5098481;28;20096;-66
2024/02/02 05:25:32;;;;;;;7.10;2.28;;;7.40;99.90;;;;;;5097608;28;20040;-63
2024/02/02 05:27:59;;;;;;;4.95;1.48;;;7.40;99.90;;;;;;5103306;28;20511;-63
2024/02/02 05:30:25;;;;;;;5.82;1.10;;;7.40;99.90;;;;;;5101514;28;20113;-64
2024/02/02 05:32:52;;;;;;;4.80;1.38;;;7.40;99.90;;;;;;5102619;28;20134;-64
2024/02/02 05:35:19;;;;;;;7.00;1.40;;;7.40;99.90;;;;;;5103966;28;20334;-63
2024/02/02 05:37:46;;;;;;;4.40;1.10;;;7.40;99.90;;;;;;5102634;28;20119;-63
2024/02/02 05:40:13;;;;;;;3.65;1.27;;;7.50;99.90;;;;;;5102657;28;20055;-63
2024/02/02 05:42:41;;;;;;;6.70;1.55;;;7.50;99.90;;;;;;5105847;28;20036;-64
2024/02/02 05:45:08;;;;;;;3.90;1.17;;;7.50;99.90;;;;;;5103588;28;20071;-63
2024/02/02 05:47:35;;;;;;;2.63;1.20;;;7.50;99.90;;;;;;5098532;28;20468;-67
2024/02/02 05:50:03;;;;;;;2.33;1.20;;;7.60;99.90;;;;;;5100638;28;20047;-64
2024/02/02 05:52:30;;;;;;;3.03;1.27;;;7.50;99.90;;;;;;5102938;28;20500;-64
2024/02/02 05:54:56;;;;;;;3.55;1.20;;;7.50;99.90;;;;;;5104943;28;20044;-63
2024/02/02 05:57:23;;;;;;;2.15;0.95;;;7.50;99.90;;;;;;5101991;28;20533;-63
2024/02/02 05:59:51;;;;;;;2.13;1.23;;;7.60;99.90;;;;;;5092910;28;20052;-63
2024/02/02 06:02:18;;;;;;;2.78;1.63;;;7.60;99.90;;;;;;5095844;28;20055;-63
2024/02/02 06:04:45;;;;;;;3.28;1.13;;;7.60;99.90;;;;;;5108349;28;20293;-64
2024/02/02 06:07:12;;;;;;;4.82;1.45;;;7.60;99.90;;;;;;5102537;28;20116;-63
2024/02/02 06:09:39;;;;;;;3.20;1.40;;;7.70;99.90;;;;;;5108449;28;20047;-63
2024/02/02 06:12:06;;;;;;;2.30;1.50;;;7.60;99.90;;;;;;5104248;28;20051;-64
2024/02/02 06:14:33;;;;;;;2.45;1.45;;;7.60;99.90;;;;;;5099502;28;20040;-63
2024/02/02 06:17:00;;;;;;;3.40;1.52;;;7.60;99.90;;;;;;5098304;28;20132;-63
2024/02/02 06:19:27;;;;;;;4.28;1.55;;;7.70;99.90;;;;;;5102769;28;20051;-63
2024/02/02 06:21:54;;;;;;;2.67;1.45;;;7.70;99.90;;;;;;5101414;28;20127;-63
2024/02/02 06:24:24;;;;;;;4.53;1.40;;;7.60;99.90;;;;;;5097389;28;20048;-63
2024/02/02 06:26:51;;;;;;;3.10;1.02;;;7.70;99.90;;;;;;5097710;27;20044;-63
2024/02/02 06:29:18;;;;;;;4.82;1.85;;;7.70;99.90;;;;;;5104924;28;20075;-63
2024/02/02 06:31:45;;;;;;;3.22;1.20;;;7.70;99.90;;;;;;5094489;28;20395;-64
2024/02/02 06:34:12;;;;;;;3.67;1.38;;;7.70;99.90;;;;;;5096763;28;20048;-64
2024/02/02 06:36:39;;;;;;;3.95;1.38;;;7.70;99.90;;;;;;5093055;28;20119;-64
2024/02/02 06:39:06;;;;;;;2.08;1.30;;;7.80;99.90;;;;;;5102930;27;20078;-64
2024/02/02 06:41:33;;;;;;;2.80;1.30;;;7.80;99.90;;;;;;5101029;28;20070;-64
2024/02/02 06:44:00;;;;;;;2.35;1.10;;;7.80;99.90;;;;;;5101993;28;20387;-64
2024/02/02 06:46:27;;;;;;;2.70;1.17;;;7.80;99.90;;;;;;5096516;28;20546;-64
2024/02/02 06:48:54;;;;;;;3.95;1.25;;;7.80;99.90;;;;;;5100964;28;20039;-64
2024/02/02 06:51:21;;;;;;;4.18;1.45;;;7.90;99.90;;;;;;5100488;28;20071;-65
2024/02/02 06:53:50;;;;;;;4.10;1.30;;;7.90;99.90;;;;;;5096075;28;20139;-65
2024/02/02 06:56:38;;;;;;;1.65;1.00;;;7.90;99.90;;;;;;5094260;28;20040;-64
2024/02/02 06:59:08;;;;;;;2.35;1.40;;;8.00;99.90;;;;;;5102122;28;20562;-64
2024/02/02 07:01:36;;;;;;;2.65;1.73;;;8.00;99.90;;;;;;5099203;28;20052;-64
2024/02/02 07:04:07;;;;;;;2.85;1.42;;;7.90;99.90;;;;;;5095524;28;20215;-62
2024/02/02 07:06:34;;;;;;;2.55;1.30;;;8.00;99.90;;;;;;5101638;28;20514;-63
2024/02/02 07:09:12;;;;;;;4.70;1.48;;;8.00;99.90;;;;;;5097897;27;20446;-64
2024/02/02 07:12:18;;;;;;;3.15;1.40;;;8.00;99.90;;;;;;5088836;28;20048;-63
2024/02/02 07:14:50;;;;;;;1.60;1.48;;;8.10;99.90;;;;;;5096802;28;20477;-62
2024/02/02 07:17:36;;;;;;;4.38;1.42;;;8.00;99.90;;;;;;5106370;28;20407;-63
2024/02/02 07:20:23;;;;;;;26.52;3.28;;;8.10;99.90;;;;;;5096704;28;20250;-63
2024/02/02 07:22:50;;;;;;;3.72;1.50;;;8.10;99.90;;;;;;5095167;28;20340;-63
2024/02/02 07:25:18;;;;;;;7.25;1.70;;;8.10;99.90;;;;;;5101516;28;20055;-63
2024/02/02 07:27:55;;;;;;;2.80;1.85;;;8.10;99.90;;;;;;5102933;28;20054;-63
2024/02/02 07:30:29;;;;;;;2.47;1.60;;;8.20;99.90;;;;;;5090568;28;20054;-63
2024/02/02 07:32:57;;;;;;;5.93;1.85;;;8.20;99.90;;;;;;5094809;28;20052;-62
2024/02/02 07:35:31;;;;;;;3.17;1.73;;;8.20;99.90;;;;;;5099736;28;20544;-62
2024/02/02 07:38:04;;;;;;;;;;;8.20;99.90;;;;;;5103574;28;20617;-63
2024/02/02 07:40:58;;;;;;;4.05;2.63;;;8.30;99.90;;;;;;5096059;28;19920;-62
2024/02/02 07:43:24;;;;;;;4.90;1.52;;;8.20;99.90;;;;;;5095790;28;20043;-62
2024/02/02 07:45:51;;;;;;;5.13;1.98;;;8.30;99.90;;;;;;5100731;28;20108;-62
2024/02/02 07:48:19;;;;;;;3.10;1.65;;;8.30;99.90;;;;;;5101614;28;20654;-62
2024/02/02 07:50:46;;;;;;;2.05;1.63;;;8.30;99.90;;;;;;5096106;28;20113;-62
2024/02/02 07:53:13;;;;;;;3.25;1.85;;;8.40;99.90;;;;;;5099530;28;20488;-62
2024/02/02 07:55:40;;;;;;;3.55;1.70;;;8.40;99.90;;;;;;5092645;28;20050;-64
2024/02/02 07:58:07;;;;;;;4.03;1.88;;;8.40;99.90;;;;;;5102340;28;20135;-62
2024/02/02 08:00:34;;;;;;;3.47;1.77;;;8.40;99.90;;;;;;5095422;28;20188;-62
2024/02/02 08:03:01;;;;;;;3.40;1.63;;;8.40;99.90;;;;;;5098401;28;20044;-62
2024/02/02 08:05:28;;;;;;;5.88;2.00;;;8.40;99.90;;;;;;5096813;28;20052;-63
2024/02/02 08:07:55;;;;;;;3.10;1.80;;;8.40;99.90;;;;;;5090653;28;20044;-62
2024/02/02 08:10:22;;;;;;;2.80;1.70;;;8.50;99.90;;;;;;5090569;28;20092;-61
2024/02/02 08:12:49;;;;;;;3.38;1.80;;;8.50;99.90;;;;;;5100265;28;20048;-61
2024/02/02 08:15:16;;;;;;;3.72;1.52;;;8.50;99.90;;;;;;5097266;28;20061;-62
2024/02/02 08:17:42;;;;;;;4.57;1.58;;;8.50;99.90;;;;;;5096710;28;20066;-61
2024/02/02 08:20:10;;;;;;;3.45;1.60;;;8.60;99.90;;;;;;5089944;28;20055;-61
2024/02/02 08:22:36;;;;;;;2.17;1.42;;;8.60;99.90;;;;;;5097043;28;20043;-62
2024/02/02 08:25:03;;;;;;;4.32;2.05;;;8.60;99.90;;;;;;5088302;28;20048;-62
2024/02/02 08:27:30;;;;;;;2.35;1.30;;;8.70;99.90;;;;;;5101779;28;20116;-61
2024/02/02 08:29:57;;;;;;;4.30;1.80;;;8.70;99.90;;;;;;5099321;28;20190;-62
2024/02/02 08:32:24;;;;;;;4.78;2.95;;;8.70;99.90;;;;;;5092817;28;20062;-65
2024/02/02 08:34:51;;;;;;;3.88;1.45;;;8.70;99.90;;;;;;5103661;28;20043;-61
2024/02/02 08:37:19;;;;;;;6.40;1.60;;;8.80;99.90;;;;;;5095383;28;20096;-61
2024/02/02 08:39:45;;;;;;;2.97;1.65;;;8.80;99.90;;;;;;5104548;28;20048;-61
2024/02/02 08:42:22;;;;;;;4.63;2.05;;;8.80;99.90;;;;;;5097790;28;20051;-61
2024/02/02 08:44:53;;;;;;;6.15;1.83;;;8.90;99.90;;;;;;5085702;28;20044;-62
2024/02/02 08:47:21;;;;;;;4.18;2.00;;;9.00;99.90;;;;;;5100763;28;20050;-61
2024/02/02 08:49:53;;;;;;;4.38;1.42;;;9.00;99.90;;;;;;5088157;28;20040;-61
2024/02/02 08:52:34;;;;;;;9.15;1.88;;;9.00;99.90;;;;;;5096991;28;20142;-61
2024/02/02 08:55:03;;;;;;;2.28;1.70;;;9.10;99.90;;;;;;5083167;28;20643;-63
2024/02/02 08:57:31;;;;;;;3.95;1.73;;;9.10;99.90;;;;;;5095590;28;20048;-62
2024/02/02 09:00:12;;;;;;;2.95;1.77;;;9.10;99.90;;;;;;5093754;28;20051;-61
2024/02/02 09:02:55;;;;;;;2.35;1.65;;;9.10;99.90;;;;;;5093813;28;20044;-62
2024/02/02 09:05:24;;;;;;;3.35;1.60;;;9.10;99.90;;;;;;5097778;28;20052;-63
2024/02/02 09:08:07;;;;;;;4.38;2.20;;;9.10;99.90;;;;;;5094506;28;20097;-62
2024/02/02 09:10:33;;;;;;;6.55;3.35;;;9.10;99.90;;;;;;5097279;28;20095;-61
2024/02/02 09:13:01;;;;;;;3.13;1.60;;;9.20;99.90;;;;;;5097338;28;20496;-62
2024/02/02 09:15:33;;;;;;;3.38;1.73;;;9.20;99.90;;;;;;5102368;28;20044;-62
2024/02/02 09:18:00;;;;;;;4.50;1.90;;;9.20;99.90;;;;;;5092611;28;20043;-60
2024/02/02 09:20:49;;;;;;;3.15;1.80;;;9.20;99.90;;;;;;5102438;28;20044;-61
2024/02/02 09:23:16;;;;;;;3.30;1.48;;;9.20;99.90;;;;;;5093081;28;20365;-61
2024/02/02 09:25:44;;;;;;;5.65;1.77;;;9.30;99.90;;;;;;5093606;28;20090;-62
2024/02/02 09:28:29;;;;;;;4.57;1.95;;;9.40;99.90;;;;;;5091171;28;20044;-61
2024/02/02 09:31:06;;;;;;;2.47;1.45;;;9.40;99.90;;;;;;5092808;28;20434;-62
2024/02/02 09:33:46;;;;;;;1.95;1.48;;;9.40;99.90;;;;;;5095196;28;20048;-62
2024/02/02 09:36:14;;;;;;;3.38;1.65;;;9.40;99.90;;;;;;5085479;28;20043;-61
2024/02/02 09:38:54;;;;;;;2.05;1.25;;;9.50;99.90;;;;;;5093769;28;20109;-63
2024/02/02 09:41:42;;;;;;;4.93;1.75;;;9.50;99.90;;;;;;5094550;28;20048;-61
2024/02/02 09:44:11;;;;;;;2.45;1.73;;;9.50;99.90;;;;;;5089701;28;20129;-61
2024/02/02 09:47:18;;;;;;;3.03;1.42;;;9.50;99.90;;;;;;5099858;28;20066;-62
2024/02/02 09:50:04;;;;;;;1.38;1.13;;;9.60;99.90;;;;;;5098634;28;20512;-62
2024/02/02 09:52:51;;;;;;;1.73;1.23;;;9.60;99.90;;;;;;5101049;28;20598;-61
2024/02/02 09:55:28;;;;;;;2.30;1.13;;;9.70;99.90;;;;;;5053800;28;20464;-62
2024/02/02 09:57:58;;;;;;;3.22;1.92;;;9.70;99.90;;;;;;5090098;28;20051;-62
2024/02/02 10:00:36;;;;;;;1.42;1.20;;;9.70;99.90;;;;;;5092211;28;20516;-62
2024/02/02 10:03:07;;;;;;;2.72;1.25;;;9.80;99.90;;;;;;5101578;28;20147;-62
2024/02/02 10:05:35;;;;;;;1.58;1.25;;;9.80;99.90;;;;;;5092143;28;20047;-62
2024/02/02 10:08:22;;;;;;;3.25;1.90;;;9.80;99.90;;;;;;5100502;28;20055;-62
2024/02/02 10:10:59;;;;;;;1.50;1.40;;;9.80;99.90;;;;;;5096537;28;20131;-61
2024/02/02 10:13:32;;;;;;;1.85;1.30;;;9.80;99.90;;;;;;5083440;28;20039;-62
2024/02/02 10:15:59;;;;;;;4.53;1.33;;;9.80;99.90;;;;;;5099317;28;20048;-61
2024/02/02 10:18:35;;;;;;;2.20;1.50;;;9.90;99.90;;;;;;5092484;28;20044;-61
2024/02/02 10:21:08;;;;;;;2.03;1.42;;;10.00;99.90;;;;;;5097825;28;20047;-61
2024/02/02 10:23:50;;;;;;;1.67;1.30;;;10.00;99.90;;;;;;5093072;28;20044;-61
2024/02/02 10:26:38;;;;;;;2.15;1.27;;;10.00;99.90;;;;;;5096091;28;20048;-61
2024/02/02 10:29:11;;;;;;;2.70;1.52;;;10.10;99.90;;;;;;5098450;28;20052;-61
2024/02/02 10:31:50;;;;;;;4.95;1.75;;;10.10;99.90;;;;;;5100318;28;20540;-62
2024/02/02 10:34:46;;;;;;;2.22;1.40;;;10.10;99.90;;;;;;5103234;28;20047;-62
2024/02/02 10:37:33;;;;;;;3.53;1.30;;;10.20;99.90;;;;;;5102739;28;20472;-62
2024/02/02 10:40:10;;;;;;;1.75;1.20;;;10.30;99.90;;;;;;5096215;28;20052;-62
2024/02/02 10:42:37;;;;;;;2.35;1.40;;;10.40;99.90;;;;;;5095400;28;20134;-62
2024/02/02 10:45:33;;;;;;;2.95;1.48;;;10.40;99.90;;;;;;5092102;28;20054;-62
2024/02/02 10:48:11;;;;;;;4.90;1.40;;;10.50;99.90;;;;;;5102343;28;20083;-62
2024/02/02 10:50:57;;;;;;;3.40;1.23;;;10.70;99.90;;;;;;5101800;28;20392;-66
2024/02/02 10:54:03;;;;;;;0.98;0.90;;;10.70;99.90;;;;;;5104852;28;20056;-62
2024/02/02 10:56:53;;;;;;;6.30;1.40;;;10.80;99.90;;;;;;5095360;28;20506;-62
2024/02/02 10:59:35;;;;;;;2.30;1.20;;;10.90;99.90;;;;;;5098202;28;20050;-62
2024/02/02 11:02:20;;;;;;;3.05;1.52;;;10.80;99.90;;;;;;5097617;28;20468;-62
2024/02/02 11:05:05;;;;;;;3.60;1.17;;;10.80;99.90;;;;;;5098994;28;20046;-61
2024/02/02 11:07:38;;;;;;;3.80;1.52;;;10.90;99.90;;;;;;5100645;28;20415;-61
2024/02/02 11:10:06;;;;;;;3.50;1.60;;;11.00;99.90;;;;;;5075816;28;20512;-62
2024/02/02 11:12:51;;;;;;;12.55;2.28;;;11.00;99.90;;;;;;5103588;28;20075;-61
2024/02/02 11:15:28;;;;;;;2.60;1.10;;;11.00;99.90;;;;;;5099857;28;20451;-62
2024/02/02 11:18:08;;;;;;;2.83;1.38;;;11.10;99.90;;;;;;5094562;28;20131;-61
2024/02/02 11:20:57;;;;;;;2.00;1.30;;;11.20;99.90;;;;;;5093508;28;20055;-62
2024/02/02 11:23:38;;;;;;;1.80;1.17;;;11.30;99.90;;;;;;5094174;28;20091;-61
2024/02/02 11:26:30;;;;;;;2.83;1.20;;;11.30;99.90;;;;;;5103071;28;20043;-62
2024/02/02 11:29:32;;;;;;;6.78;1.30;;;11.40;99.90;;;;;;5097114;28;20104;-62
2024/02/02 11:32:21;;;;;;;2.30;0.90;;;11.50;99.90;;;;;;5099578;28;20043;-62
2024/02/02 11:35:06;;;;;;;1.20;0.90;;;11.50;99.90;;;;;;5105371;28;20062;-62
2024/02/02 11:37:51;;;;;;;3.72;1.30;;;11.60;99.90;;;;;;5098712;28;20054;-62
2024/02/02 11:40:20;;;;;;;1.88;1.20;;;11.70;99.90;;;;;;5094810;28;20550;-61
2024/02/02 11:42:47;;;;;;;1.23;0.70;;;11.80;99.90;;;;;;5092579;28;20050;-61
2024/02/02 11:45:24;;;;;;;3.50;1.00;;;11.80;99.90;;;;;;5068662;28;20468;-61
2024/02/02 11:47:58;;;;;;;5.32;0.82;;;11.80;99.90;;;;;;5099260;28;20064;-61
2024/02/02 11:50:25;;;;;;;3.45;1.10;;;11.80;99.90;;;;;;5101375;28;20044;-61
2024/02/02 11:52:54;;;;;;;2.95;1.35;;;11.90;99.90;;;;;;5095806;28;20051;-61
2024/02/02 11:55:32;;;;;;;2.03;1.08;;;12.00;99.90;;;;;;5078295;28;20040;-61
2024/02/02 11:58:03;;;;;;;2.63;0.82;;;12.10;99.90;;;;;;5094467;28;20100;-62
2024/02/02 12:00:44;;;;;;;4.43;1.05;;;12.00;99.90;;;;;;5093429;28;20488;-63
2024/02/02 12:03:30;;;;;;;0.98;0.80;;;12.00;99.90;;;;;;5097857;28;20081;-62
2024/02/02 12:06:15;;;;;;;1.52;0.73;;;12.00;99.90;;;;;;5100821;28;20054;-62
2024/02/02 12:08:58;;;;;;;3.67;0.98;;;12.00;99.90;;;;;;5079091;28;20464;-62
2024/02/02 12:11:32;;;;;;;1.95;1.08;;;12.00;99.90;;;;;;5102349;28;20071;-61
2024/02/02 12:14:42;;;;;;;1.67;0.85;;;11.90;99.90;;;;;;5069923;28;20251;-62
2024/02/02 12:17:12;;;;;;;2.20;0.57;;;11.90;99.90;;;;;;5089577;28;20069;-62
2024/02/02 12:19:40;;;;;;;1.75;0.95;;;12.00;99.90;;;;;;5095454;28;20127;-62
2024/02/02 12:22:07;;;;;;;0.75;0.75;;;12.00;99.90;;;;;;5093401;28;20060;-62
2024/02/02 12:24:34;;;;;;;1.70;0.70;;;12.00;99.90;;;;;;5090740;28;20435;-62
2024/02/02 12:27:01;;;;;;;5.25;0.80;;;12.00;99.90;;;;;;5103341;28;20051;-62
2024/02/02 12:29:28;;;;;;;0.90;0.73;;;12.10;99.90;;;;;;5099822;28;20064;-62
2024/02/02 12:31:55;;;;;;;1.85;1.08;;;12.20;99.90;;;;;;5096870;28;20055;-62
2024/02/02 12:34:22;;;;;;;1.25;0.90;;;12.30;99.90;;;;;;5095917;28;20051;-62
2024/02/02 12:36:49;;;;;;;3.42;0.98;;;12.40;99.90;;;;;;5094650;28;20058;-63
2024/02/02 12:39:16;;;;;;;1.75;0.93;;;12.50;99.90;;;;;;5102876;28;20154;-61
2024/02/02 12:41:43;;;;;;;1.13;0.60;;;12.50;99.90;;;;;;5092698;28;20043;-63
2024/02/02 12:44:10;;;;;;;2.20;0.80;;;12.50;99.90;;;;;;5094579;28;20097;-62
2024/02/02 12:46:47;;;;;;;1.70;0.70;;;12.60;99.90;;;;;;5097387;28;20070;-62
2024/02/02 12:49:14;;;;;;;2.65;0.90;;;12.70;99.90;;;;;;5095290;28;20054;-62
2024/02/02 12:51:42;;;;;;;4.93;0.90;;;12.70;99.90;;;;;;5096564;28;20044;-61
2024/02/02 12:54:09;;;;;;;2.47;0.70;;;12.80;99.90;;;;;;5094643;28;20044;-61
2024/02/02 12:56:36;;;;;;;1.90;0.85;;;12.90;99.90;;;;;;5093662;28;20047;-62
2024/02/02 12:59:09;;;;;;;1.17;0.68;;;13.00;99.90;;;;;;5101701;28;20064;-61
2024/02/02 13:01:37;;;;;;;5.43;1.00;;;13.00;99.90;;;;;;5095071;28;20062;-61
2024/02/02 13:04:04;;;;;;;1.02;0.50;;;13.00;99.90;;;;;;5099848;28;20601;-61
2024/02/02 13:06:32;;;;;;;2.67;2.45;;;13.00;99.90;;;;;;5093643;28;20559;-61
2024/02/02 13:09:18;;;;;;;1.95;0.85;;;13.10;99.90;;;;;;5099359;28;20047;-60
2024/02/02 13:11:46;;;;;;;1.58;0.57;;;13.20;99.90;;;;;;5099436;28;20047;-62